Time;durP1;ratioP1;P1;durP2;ratioP2;P2;SDS_P1;SDS_P2;PMS_P1;PMS_P2;Temp;Humidity;BMP_temperature;BMP_pressure;BME280_temperature;BME280_humidity;BME280_pressure;Samples;Min_cycle;Max_cycle;Signal;HPM_P1;HPM_P2
2023/11/29 00:01:34;;;;;;;3.13;0.97;;;3.80;99.90;;;;;;5049105;28;47344;-77
2023/11/29 00:04:00;;;;;;;7.15;1.02;;;3.80;99.90;;;;;;5066715;28;38190;-76
2023/11/29 00:06:26;;;;;;;2.93;1.20;;;3.80;99.90;;;;;;5050101;28;37513;-77
2023/11/29 00:08:57;;;;;;;4.13;1.00;;;3.80;99.90;;;;;;5051077;28;37254;-75
2023/11/29 00:11:26;;;;;;;1.63;0.83;;;3.80;99.90;;;;;;5048921;28;38060;-76
2023/11/29 00:13:56;;;;;;;2.50;1.03;;;3.80;99.90;;;;;;5050531;28;37041;-77
2023/11/29 00:16:22;;;;;;;6.73;1.13;;;3.90;99.90;;;;;;5075911;28;39155;-76
2023/11/29 00:18:48;;;;;;;6.50;1.40;;;3.90;99.90;;;;;;5066937;28;40182;-76
2023/11/29 00:21:15;;;;;;;3.50;1.23;;;3.90;99.90;;;;;;5050105;28;37568;-76
2023/11/29 00:23:42;;;;;;;4.33;1.20;;;4.00;99.90;;;;;;5053200;28;37254;-76
2023/11/29 00:26:08;;;;;;;6.07;1.10;;;4.00;99.90;;;;;;5055071;28;38219;-76
2023/11/29 00:28:37;;;;;;;6.63;1.33;;;4.00;99.90;;;;;;5045702;28;38718;-77
2023/11/29 00:31:03;;;;;;;7.80;1.50;;;4.10;99.90;;;;;;5070881;28;39804;-77
2023/11/29 00:33:29;;;;;;;8.30;1.70;;;4.10;99.90;;;;;;5067999;28;38307;-76
2023/11/29 00:35:55;;;;;;;7.50;1.60;;;4.20;99.90;;;;;;5067865;28;37486;-78
2023/11/29 00:38:23;;;;;;;6.10;1.30;;;4.30;99.90;;;;;;5055653;28;37333;-78
2023/11/29 00:40:51;;;;;;;8.30;1.33;;;4.30;99.90;;;;;;5058504;28;37033;-78
2023/11/29 00:43:18;;;;;;;5.13;1.53;;;4.50;99.90;;;;;;5059630;28;36499;-77
2023/11/29 00:45:46;;;;;;;6.23;1.60;;;4.60;99.90;;;;;;5093303;28;38288;-77
2023/11/29 00:48:13;;;;;;;2.87;1.23;;;4.70;99.90;;;;;;5059591;28;39029;-77
2023/11/29 00:50:40;;;;;;;5.23;1.50;;;4.80;99.90;;;;;;5062621;28;37781;-77
2023/11/29 00:53:06;;;;;;;5.10;1.70;;;4.80;99.90;;;;;;5072355;28;37521;-77
2023/11/29 00:55:32;;;;;;;10.50;2.50;;;4.80;99.90;;;;;;5055414;28;39477;-77
2023/11/29 00:57:58;;;;;;;5.33;1.30;;;4.90;99.90;;;;;;5078720;28;38413;-77
2023/11/29 01:00:24;;;;;;;7.00;1.43;;;5.00;99.90;;;;;;5067248;28;36416;-77
2023/11/29 01:02:50;;;;;;;3.70;0.97;;;5.00;99.90;;;;;;5097891;28;37221;-78
2023/11/29 01:05:16;;;;;;;4.23;1.50;;;4.90;99.90;;;;;;5065562;28;38146;-78
2023/11/29 01:07:43;;;;;;;5.07;1.20;;;4.90;99.90;;;;;;5074376;28;38519;-78
2023/11/29 01:10:09;;;;;;;3.33;1.10;;;4.80;99.90;;;;;;5065055;28;38284;-78
2023/11/29 01:12:38;;;;;;;5.10;1.53;;;4.80;99.90;;;;;;5072343;28;37474;-78
2023/11/29 01:15:05;;;;;;;3.43;0.93;;;4.80;99.90;;;;;;5081239;28;40608;-78
2023/11/29 01:17:33;;;;;;;6.60;1.27;;;4.70;99.90;;;;;;5057157;28;39376;-78
2023/11/29 01:19:59;;;;;;;7.23;1.40;;;4.80;99.90;;;;;;5055561;28;36944;-79
2023/11/29 01:22:26;;;;;;;6.67;1.37;;;4.80;99.90;;;;;;5072579;28;37808;-77
2023/11/29 01:24:52;;;;;;;6.93;1.57;;;4.80;99.90;;;;;;5055664;28;38678;-77
2023/11/29 01:27:18;;;;;;;5.17;0.97;;;4.80;99.90;;;;;;5048548;28;38475;-79
2023/11/29 01:29:45;;;;;;;6.57;1.30;;;4.90;99.90;;;;;;5073395;28;38337;-78
2023/11/29 01:32:11;;;;;;;6.27;1.70;;;4.90;99.90;;;;;;5053505;28;35994;-77
2023/11/29 01:34:41;;;;;;;9.43;1.43;;;5.00;99.90;;;;;;5087925;28;37841;-78
2023/11/29 01:37:07;;;;;;;6.13;1.73;;;5.10;99.90;;;;;;5087150;28;37973;-78
2023/11/29 01:39:33;;;;;;;6.97;1.00;;;5.30;99.90;;;;;;5056339;28;36628;-78
2023/11/29 01:41:59;;;;;;;5.03;1.13;;;5.70;99.90;;;;;;5056175;28;37215;-78
2023/11/29 01:44:29;;;;;;;6.13;1.53;;;5.80;99.90;;;;;;5060009;28;37669;-78
2023/11/29 01:46:55;;;;;;;8.23;1.23;;;5.80;99.90;;;;;;5066891;28;36876;-78
2023/11/29 01:49:21;;;;;;;8.90;1.60;;;5.80;99.90;;;;;;5074494;28;38593;-78
2023/11/29 01:51:48;;;;;;;7.00;1.83;;;5.60;99.90;;;;;;5079293;28;37403;-78
2023/11/29 01:54:20;;;;;;;17.80;1.80;;;5.70;99.90;;;;;;5071863;28;38841;-78
2023/11/29 01:56:49;;;;;;;9.48;1.85;;;5.60;99.90;;;;;;5054799;28;38535;-78
2023/11/29 01:59:18;;;;;;;9.17;1.80;;;5.80;99.90;;;;;;5063589;28;38028;-77
2023/11/29 02:04:21;;;;;;;8.47;1.70;;;5.80;99.90;;;;;;4899763;22;20047;-78
2023/11/29 02:06:50;;;;;;;7.07;2.07;;;5.80;99.90;;;;;;5087058;28;37673;-78
2023/11/29 02:09:16;;;;;;;9.03;1.73;;;5.80;98.70;;;;;;5059555;28;37831;-78
2023/11/29 02:11:44;;;;;;;8.83;1.97;;;5.80;94.50;;;;;;5068596;28;35892;-78
2023/11/29 02:14:13;;;;;;;6.67;1.33;;;5.80;95.90;;;;;;5080001;28;40169;-78
2023/11/29 02:16:39;;;;;;;7.03;1.27;;;5.80;90.90;;;;;;5068102;28;36931;-78
2023/11/29 02:19:08;;;;;;;6.70;1.53;;;5.80;90.90;;;;;;5066934;28;37652;-78
2023/11/29 02:21:34;;;;;;;6.67;1.30;;;5.80;89.00;;;;;;5073309;28;36196;-78
2023/11/29 02:24:15;;;;;;;10.63;1.27;;;5.70;85.70;;;;;;5071586;28;38207;-77
2023/11/29 02:26:41;;;;;;;10.27;1.87;;;5.70;73.50;;;;;;5082534;28;48621;-77
2023/11/29 02:29:07;;;;;;;7.80;1.37;;;5.80;72.40;;;;;;5088285;28;38038;-77
2023/11/29 02:31:35;;;;;;;6.33;1.50;;;5.80;58.30;;;;;;5059591;28;37364;-78
2023/11/29 02:34:03;;;;;;;8.17;1.17;;;5.80;59.80;;;;;;5067666;28;38356;-77
2023/11/29 02:36:30;;;;;;;9.53;1.43;;;5.80;59.40;;;;;;5036988;28;47846;-77
2023/11/29 02:38:56;;;;;;;10.27;1.43;;;5.80;55.50;;;;;;5075286;28;38181;-77
2023/11/29 02:41:22;;;;;;;6.37;1.30;;;5.80;41.70;;;;;;5091287;28;37047;-77
2023/11/29 02:43:51;;;;;;;8.97;1.30;;;5.80;47.80;;;;;;5071879;28;37531;-77
2023/11/29 02:46:17;;;;;;;5.83;1.07;;;5.80;62.10;;;;;;5067116;28;38003;-77
2023/11/29 02:48:44;;;;;;;5.80;1.00;;;5.60;71.80;;;;;;5069459;28;37723;-77
2023/11/29 02:51:10;;;;;;;7.23;1.30;;;5.60;79.50;;;;;;5055215;28;39143;-77
2023/11/29 02:53:36;;;;;;;8.80;1.30;;;5.70;69.50;;;;;;5068280;28;38989;-77
2023/11/29 02:56:06;;;;;;;8.63;1.23;;;5.70;63.80;;;;;;5073805;28;38437;-77
2023/11/29 02:58:32;;;;;;;9.63;1.23;;;5.70;59.00;;;;;;5061953;28;36915;-78
2023/11/29 03:00:58;;;;;;;6.20;1.10;;;5.80;46.80;;;;;;5080007;28;37128;-78
2023/11/29 03:03:27;;;;;;;7.23;1.30;;;5.80;51.00;;;;;;5084564;28;39588;-77
2023/11/29 03:05:53;;;;;;;6.73;1.27;;;5.80;41.40;;;;;;5085716;28;38296;-77
2023/11/29 03:08:20;;;;;;;7.30;1.10;;;5.90;37.80;;;;;;5067130;28;37377;-77
2023/11/29 03:10:47;;;;;;;4.27;0.80;;;5.90;41.90;;;;;;5084597;28;37494;-77
2023/11/29 03:13:13;;;;;;;7.00;1.23;;;6.00;29.40;;;;;;5087764;28;39841;-77
2023/11/29 03:15:39;;;;;;;4.77;1.30;;;6.00;35.00;;;;;;5059513;28;37720;-77
2023/11/29 03:18:07;;;;;;;5.40;1.20;;;6.00;31.90;;;;;;5085758;28;37836;-78
2023/11/29 03:20:37;;;;;;;7.03;1.23;;;6.10;37.40;;;;;;5082480;28;38696;-77
2023/11/29 03:23:03;;;;;;;3.57;0.93;;;6.10;39.70;;;;;;5070992;28;38840;-77
2023/11/29 03:25:29;;;;;;;3.00;1.00;;;6.10;46.80;;;;;;5089273;28;37997;-77
2023/11/29 03:27:57;;;;;;;4.97;1.13;;;6.00;63.30;;;;;;5083682;28;37599;-78
2023/11/29 03:30:23;;;;;;;7.07;0.97;;;5.80;92.40;;;;;;5076570;28;37161;-79
2023/11/29 03:32:49;;;;;;;9.20;1.40;;;5.60;92.40;;;;;;5061153;28;38690;-79
2023/11/29 03:35:18;;;;;;;8.73;1.77;;;5.50;99.80;;;;;;5065879;28;37662;-78
2023/11/29 03:37:44;;;;;;;5.03;1.30;;;5.40;99.90;;;;;;5090345;28;38224;-78
2023/11/29 03:40:11;;;;;;;10.63;1.97;;;5.30;99.90;;;;;;5062871;28;36301;-79
2023/11/29 03:42:37;;;;;;;5.50;1.27;;;5.10;99.90;;;;;;5091085;28;38993;-78
2023/11/29 03:45:04;;;;;;;6.53;1.40;;;5.10;99.90;;;;;;5067961;28;38668;-78
2023/11/29 03:47:30;;;;;;;6.10;1.03;;;5.20;99.90;;;;;;5089194;28;48227;-78
2023/11/29 03:49:59;;;;;;;9.80;1.60;;;5.30;99.90;;;;;;5085192;28;37654;-78
2023/11/29 03:52:28;;;;;;;7.80;1.60;;;5.30;99.90;;;;;;5078490;28;39829;-79
2023/11/29 03:54:54;;;;;;;5.30;1.20;;;5.40;99.90;;;;;;5098459;28;38304;-78
2023/11/29 03:57:21;;;;;;;11.17;1.63;;;5.50;99.90;;;;;;5103760;27;38155;-77
2023/11/29 03:59:50;;;;;;;6.93;1.83;;;5.60;99.90;;;;;;5070811;28;36100;-77
2023/11/29 04:02:19;;;;;;;9.63;1.30;;;5.80;95.00;;;;;;5057125;28;38235;-77
2023/11/29 04:04:54;;;;;;;9.23;1.43;;;5.80;95.20;;;;;;5088697;28;37984;-77
2023/11/29 04:07:20;;;;;;;5.23;0.80;;;5.80;99.10;;;;;;5081870;28;39547;-77
2023/11/29 04:09:46;;;;;;;3.77;0.77;;;5.50;99.90;;;;;;5074247;28;36010;-77
2023/11/29 04:12:12;;;;;;;4.80;0.80;;;5.20;99.90;;;;;;5073993;28;38429;-77
2023/11/29 04:14:41;;;;;;;10.50;1.17;;;4.90;99.90;;;;;;5076010;28;39276;-78
2023/11/29 04:17:08;;;;;;;9.47;1.40;;;4.40;99.90;;;;;;5065488;28;36879;-78
2023/11/29 04:19:34;;;;;;;1.83;0.40;;;4.10;99.90;;;;;;5066650;28;36328;-79
2023/11/29 04:22:02;;;;;;;1.30;0.50;;;3.80;99.90;;;;;;5068480;28;38371;-76
2023/11/29 04:24:29;;;;;;;3.63;0.43;;;3.70;99.90;;;;;;5075109;28;47211;-76
2023/11/29 04:26:55;;;;;;;3.17;0.40;;;3.60;99.90;;;;;;5070672;28;37213;-76
2023/11/29 04:29:21;;;;;;;6.60;0.53;;;3.60;99.90;;;;;;5068977;28;36257;-76
2023/11/29 04:31:47;;;;;;;4.50;0.50;;;3.70;99.90;;;;;;5069067;28;37744;-76
2023/11/29 04:34:13;;;;;;;4.63;0.40;;;3.80;99.90;;;;;;5057495;28;38477;-76
2023/11/29 04:36:42;;;;;;;5.80;0.80;;;3.80;99.90;;;;;;5090395;28;37926;-76
2023/11/29 04:39:12;;;;;;;2.47;0.67;;;4.00;99.90;;;;;;5077962;28;36542;-77
2023/11/29 04:41:39;;;;;;;2.77;0.40;;;4.10;99.90;;;;;;5090849;28;41259;-76
2023/11/29 04:44:07;;;;;;;1.17;0.43;;;4.00;99.90;;;;;;5067672;28;37730;-76
2023/11/29 04:46:33;;;;;;;8.10;0.67;;;4.10;99.90;;;;;;5069977;28;37140;-76
2023/11/29 04:49:00;;;;;;;0.93;0.50;;;4.00;99.90;;;;;;5100547;28;37002;-76
2023/11/29 04:51:26;;;;;;;1.53;0.40;;;3.90;99.90;;;;;;5068755;28;37969;-76
2023/11/29 04:53:52;;;;;;;3.30;0.50;;;3.90;99.90;;;;;;5066368;28;37591;-77
2023/11/29 04:56:19;;;;;;;4.97;0.77;;;3.80;99.90;;;;;;5065769;28;38520;-77
2023/11/29 04:58:46;;;;;;;5.47;0.90;;;3.90;99.90;;;;;;5070360;28;36447;-76
2023/11/29 05:01:12;;;;;;;4.67;0.53;;;3.90;99.90;;;;;;5062016;28;38822;-76
2023/11/29 05:03:39;;;;;;;3.90;0.97;;;3.90;99.90;;;;;;5076405;28;38339;-76
2023/11/29 05:06:07;;;;;;;9.70;1.00;;;4.00;99.90;;;;;;5054262;28;37182;-77
2023/11/29 05:08:33;;;;;;;5.40;0.83;;;3.90;99.90;;;;;;5081784;28;36967;-76
2023/11/29 05:11:00;;;;;;;6.70;0.90;;;4.00;99.90;;;;;;5066828;28;38443;-76
2023/11/29 05:13:27;;;;;;;8.23;1.20;;;4.10;99.90;;;;;;5060883;28;37235;-77
2023/11/29 05:15:53;;;;;;;6.43;1.30;;;4.10;99.90;;;;;;5067102;28;37758;-78
2023/11/29 05:18:19;;;;;;;9.53;1.37;;;4.00;99.90;;;;;;5058350;28;37636;-77
2023/11/29 05:20:46;;;;;;;8.07;1.00;;;3.70;99.90;;;;;;5058943;28;38912;-76
2023/11/29 05:23:12;;;;;;;13.17;1.30;;;3.50;99.90;;;;;;5088585;28;38192;-76
2023/11/29 05:25:38;;;;;;;13.73;1.30;;;3.40;99.90;;;;;;5080447;28;38798;-75
2023/11/29 05:28:05;;;;;;;10.10;1.07;;;3.40;99.90;;;;;;5089790;28;37476;-75
2023/11/29 05:30:35;;;;;;;9.17;1.63;;;3.40;99.90;;;;;;5070743;28;38871;-76
2023/11/29 05:33:04;;;;;;;7.63;1.60;;;3.40;99.90;;;;;;5059092;28;38612;-76
2023/11/29 05:35:31;;;;;;;12.97;1.30;;;3.60;99.90;;;;;;5056121;28;47316;-76
2023/11/29 05:37:57;;;;;;;12.73;1.37;;;3.80;99.90;;;;;;5076310;28;36496;-76
2023/11/29 05:40:27;;;;;;;8.93;1.47;;;3.90;99.90;;;;;;5081898;28;38676;-76
2023/11/29 05:42:56;;;;;;;8.17;1.27;;;4.00;99.90;;;;;;5096380;28;38404;-75
2023/11/29 05:45:22;;;;;;;8.63;1.47;;;4.20;99.90;;;;;;5082716;28;38178;-75
2023/11/29 05:47:48;;;;;;;12.90;1.83;;;4.30;99.90;;;;;;5067021;28;36236;-76
2023/11/29 05:50:14;;;;;;;12.00;1.50;;;4.50;99.90;;;;;;5080490;28;39584;-76
2023/11/29 05:52:40;;;;;;;13.53;1.70;;;4.60;99.90;;;;;;5064444;28;38221;-76
2023/11/29 05:55:07;;;;;;;7.10;1.27;;;4.70;99.90;;;;;;5065383;28;38097;-75
2023/11/29 05:57:36;;;;;;;7.50;1.30;;;4.80;99.90;;;;;;5067038;28;37373;-75
2023/11/29 06:00:08;;;;;;;8.07;0.67;;;5.00;99.90;;;;;;5080988;28;37133;-76
2023/11/29 06:02:39;;;;;;;9.35;1.40;;;5.00;99.90;;;;;;5062392;28;38353;-76
2023/11/29 06:05:08;;;;;;;10.10;1.13;;;4.90;99.90;;;;;;5081976;28;37941;-77
2023/11/29 06:07:40;;;;;;;5.83;1.07;;;4.80;99.90;;;;;;5061864;28;37670;-76
2023/11/29 06:10:07;;;;;;;10.23;1.10;;;4.80;99.90;;;;;;5062900;28;41616;-77
2023/11/29 06:12:33;;;;;;;7.03;1.47;;;4.80;99.90;;;;;;5061814;28;39716;-77
2023/11/29 06:15:04;;;;;;;7.33;1.10;;;4.80;99.90;;;;;;5080722;28;37852;-77
2023/11/29 06:17:35;;;;;;;8.63;1.40;;;4.80;99.90;;;;;;5103100;27;47508;-77
2023/11/29 06:20:04;;;;;;;6.73;1.10;;;4.80;99.90;;;;;;5073124;28;38058;-77
2023/11/29 06:22:32;;;;;;;7.30;0.80;;;4.70;99.90;;;;;;5064328;28;47767;-76
2023/11/29 06:25:00;;;;;;;7.27;1.00;;;4.60;99.90;;;;;;5061149;28;37062;-76
2023/11/29 06:27:28;;;;;;;8.67;0.83;;;4.50;99.90;;;;;;5086585;28;37659;-76
2023/11/29 06:29:55;;;;;;;5.67;0.73;;;4.40;99.90;;;;;;5066083;28;39094;-76
2023/11/29 06:32:22;;;;;;;5.57;1.07;;;4.30;99.90;;;;;;5091805;28;38774;-76
2023/11/29 06:34:51;;;;;;;7.47;1.10;;;4.30;99.90;;;;;;5074464;28;38269;-76
2023/11/29 06:37:17;;;;;;;6.37;1.20;;;4.30;99.90;;;;;;5104011;28;36834;-76
2023/11/29 06:39:46;;;;;;;4.87;0.90;;;4.40;99.90;;;;;;5094138;28;39493;-75
2023/11/29 06:42:13;;;;;;;11.03;0.83;;;4.40;99.90;;;;;;5063187;28;38986;-75
2023/11/29 06:44:40;;;;;;;7.27;1.03;;;4.50;99.90;;;;;;5081682;28;38200;-76
2023/11/29 06:47:06;;;;;;;6.33;1.50;;;4.60;99.90;;;;;;5068300;28;36330;-75
2023/11/29 06:49:32;;;;;;;7.17;1.17;;;4.50;99.90;;;;;;5067572;28;37970;-75
2023/11/29 06:51:58;;;;;;;3.17;0.90;;;4.60;99.90;;;;;;5073436;28;40131;-75
2023/11/29 06:54:24;;;;;;;3.97;0.73;;;4.60;99.90;;;;;;5079590;28;36348;-76
2023/11/29 06:56:51;;;;;;;5.83;1.00;;;4.50;99.90;;;;;;5063358;28;36266;-75
2023/11/29 06:59:17;;;;;;;4.10;1.53;;;4.50;99.90;;;;;;5083081;28;39488;-75
2023/11/29 07:01:43;;;;;;;4.63;1.20;;;4.40;99.90;;;;;;5055159;28;38740;-74
2023/11/29 07:04:09;;;;;;;8.27;0.90;;;4.40;99.90;;;;;;5041560;28;37291;-75
2023/11/29 07:06:38;;;;;;;4.60;1.40;;;4.40;99.90;;;;;;5042438;28;36826;-75
2023/11/29 07:09:06;;;;;;;6.03;1.20;;;4.40;99.90;;;;;;5051755;28;39394;-75
2023/11/29 07:11:36;;;;;;;6.83;1.43;;;4.40;99.90;;;;;;5049209;28;38817;-75
2023/11/29 07:14:04;;;;;;;6.20;1.43;;;4.40;99.90;;;;;;5060512;28;39579;-75
2023/11/29 07:16:30;;;;;;;6.87;1.50;;;4.40;99.90;;;;;;5062655;28;36791;-74
2023/11/29 07:18:56;;;;;;;9.10;1.77;;;4.30;99.90;;;;;;5050387;28;37784;-75
2023/11/29 07:21:26;;;;;;;4.63;1.10;;;4.30;99.90;;;;;;5061785;28;38282;-75
2023/11/29 07:23:52;;;;;;;6.23;1.30;;;4.20;99.90;;;;;;5050047;28;38843;-76
2023/11/29 07:26:19;;;;;;;7.70;2.03;;;4.30;99.90;;;;;;5031764;28;36821;-75
2023/11/29 07:28:47;;;;;;;5.50;1.57;;;4.30;99.90;;;;;;5043317;28;39834;-75
2023/11/29 07:31:18;;;;;;;9.33;1.40;;;4.30;99.90;;;;;;5052399;28;38698;-76
2023/11/29 07:33:44;;;;;;;2.90;0.93;;;4.30;99.90;;;;;;5051462;28;37074;-75
2023/11/29 07:36:12;;;;;;;9.43;1.80;;;4.30;99.90;;;;;;5064871;28;37205;-75
2023/11/29 07:38:40;;;;;;;12.73;3.13;;;4.40;99.90;;;;;;5068859;28;38157;-75
2023/11/29 07:41:06;;;;;;;9.43;1.30;;;4.40;99.90;;;;;;5055169;28;37612;-76
2023/11/29 07:43:32;;;;;;;6.33;0.90;;;4.40;99.90;;;;;;5054771;28;37200;-77
2023/11/29 07:45:58;;;;;;;7.27;1.07;;;4.20;99.90;;;;;;5056219;28;37021;-74
2023/11/29 07:48:25;;;;;;;8.47;1.17;;;4.20;99.90;;;;;;5065658;28;37957;-73
2023/11/29 07:50:54;;;;;;;7.73;1.27;;;4.10;99.90;;;;;;5051671;28;37142;-75
2023/11/29 07:53:21;;;;;;;12.07;2.23;;;4.10;99.90;;;;;;5053475;28;40747;-75
2023/11/29 07:55:47;;;;;;;6.97;1.10;;;4.10;99.90;;;;;;5066764;28;37795;-74
2023/11/29 07:58:19;;;;;;;8.00;1.30;;;4.10;99.90;;;;;;5046503;28;39404;-75
2023/11/29 08:00:45;;;;;;;11.23;2.70;;;4.10;99.90;;;;;;5054376;28;39027;-75
2023/11/29 08:03:11;;;;;;;9.17;1.43;;;4.10;99.90;;;;;;5066206;28;38833;-74
2023/11/29 08:05:40;;;;;;;9.70;1.90;;;4.10;99.90;;;;;;5053598;28;36624;-77
2023/11/29 08:08:09;;;;;;;8.93;1.70;;;4.00;99.90;;;;;;5054776;28;37605;-75
2023/11/29 08:10:38;;;;;;;7.93;1.87;;;3.90;99.90;;;;;;5050257;28;37514;-75
2023/11/29 08:13:04;;;;;;;9.07;1.67;;;3.90;99.90;;;;;;5055247;28;38440;-75
2023/11/29 08:15:30;;;;;;;10.50;2.00;;;3.80;99.90;;;;;;5068442;28;38358;-74
2023/11/29 08:17:59;;;;;;;7.30;2.60;;;3.80;99.90;;;;;;5057670;28;38745;-75
2023/11/29 08:20:26;;;;;;;15.20;4.17;;;3.70;99.90;;;;;;5054140;28;36918;-75
2023/11/29 08:22:52;;;;;;;9.50;2.07;;;3.70;99.90;;;;;;5068816;28;37247;-75
2023/11/29 08:25:20;;;;;;;8.60;2.33;;;3.90;99.90;;;;;;5058245;28;36627;-75
2023/11/29 08:27:50;;;;;;;8.10;1.70;;;4.10;99.90;;;;;;5069271;28;39966;-75
2023/11/29 08:30:18;;;;;;;8.87;1.80;;;4.20;99.90;;;;;;5066454;28;39263;-75
2023/11/29 08:32:45;;;;;;;9.97;1.60;;;4.30;99.90;;;;;;5066968;28;37780;-75
2023/11/29 08:35:11;;;;;;;11.10;1.73;;;4.40;99.90;;;;;;5051856;28;38064;-75
2023/11/29 08:37:40;;;;;;;4.73;1.97;;;4.50;99.90;;;;;;5054255;28;38662;-75
2023/11/29 08:40:10;;;;;;;8.73;1.83;;;4.50;99.90;;;;;;5056857;28;37873;-74
2023/11/29 08:42:36;;;;;;;14.97;2.57;;;4.50;99.90;;;;;;5056769;28;37581;-75
2023/11/29 08:45:03;;;;;;;7.40;1.27;;;4.50;99.90;;;;;;5061891;28;35908;-75
2023/11/29 08:47:31;;;;;;;11.60;1.60;;;4.50;99.90;;;;;;5049930;28;39906;-76
2023/11/29 08:49:57;;;;;;;10.27;2.20;;;4.50;99.90;;;;;;5068138;28;40468;-75
2023/11/29 08:52:24;;;;;;;7.93;1.80;;;4.40;99.90;;;;;;5050267;28;37291;-75
2023/11/29 08:54:53;;;;;;;9.63;2.00;;;4.30;99.90;;;;;;5065676;28;36544;-75
2023/11/29 08:57:23;;;;;;;10.63;2.20;;;4.30;99.90;;;;;;5067466;28;37924;-75
2023/11/29 08:59:52;;;;;;;9.60;2.00;;;4.20;99.90;;;;;;5067418;28;37785;-77
2023/11/29 09:02:23;;;;;;;7.53;2.30;;;4.00;99.90;;;;;;5054346;28;38430;-75
2023/11/29 09:04:50;;;;;;;5.87;1.93;;;4.00;99.90;;;;;;5058331;28;36871;-76
2023/11/29 09:07:17;;;;;;;5.93;2.03;;;3.80;99.90;;;;;;5051788;28;38984;-75
2023/11/29 09:09:44;;;;;;;6.10;2.00;;;3.80;99.90;;;;;;5057955;28;37134;-76
2023/11/29 09:12:16;;;;;;;8.63;2.60;;;3.70;99.90;;;;;;5041613;28;37781;-76
2023/11/29 09:14:43;;;;;;;13.20;2.70;;;3.60;99.90;;;;;;5051397;28;36146;-77
2023/11/29 09:17:10;;;;;;;8.73;2.17;;;3.60;99.90;;;;;;5059367;28;39218;-76
2023/11/29 09:19:37;;;;;;;6.87;2.50;;;3.50;99.90;;;;;;5060373;28;38568;-76
2023/11/29 09:22:07;;;;;;;4.07;2.40;;;3.50;99.90;;;;;;5069616;28;38016;-75
2023/11/29 09:24:36;;;;;;;9.10;2.30;;;3.50;99.90;;;;;;5054284;28;35991;-76
2023/11/29 09:27:05;;;;;;;8.50;2.10;;;3.60;99.90;;;;;;5052973;28;39388;-76
2023/11/29 09:29:32;;;;;;;8.83;2.27;;;3.60;99.90;;;;;;5068523;28;39659;-75
2023/11/29 09:32:00;;;;;;;11.70;2.53;;;3.60;99.90;;;;;;5070092;28;38476;-75
2023/11/29 09:34:26;;;;;;;9.33;2.47;;;3.60;99.90;;;;;;5069107;28;37082;-75
2023/11/29 09:36:54;;;;;;;10.17;2.40;;;3.80;99.90;;;;;;5055251;28;37878;-76
2023/11/29 09:39:20;;;;;;;7.90;2.60;;;3.90;99.90;;;;;;5069712;28;41992;-75
2023/11/29 09:41:46;;;;;;;5.60;1.83;;;4.00;99.90;;;;;;5056565;28;37169;-75
2023/11/29 09:44:15;;;;;;;4.40;1.77;;;4.20;99.90;;;;;;5055742;28;36296;-75
2023/11/29 09:46:43;;;;;;;5.20;1.63;;;4.30;99.90;;;;;;5052792;28;37496;-75
2023/11/29 09:49:11;;;;;;;13.50;2.23;;;4.40;99.90;;;;;;5059778;28;37695;-76
2023/11/29 09:51:37;;;;;;;4.83;1.67;;;4.40;99.90;;;;;;5057347;28;37254;-75
2023/11/29 09:54:03;;;;;;;5.37;1.80;;;4.40;99.90;;;;;;5061872;28;35170;-76
2023/11/29 09:56:30;;;;;;;5.53;2.07;;;4.50;99.90;;;;;;5075032;28;38439;-75
2023/11/29 09:58:57;;;;;;;8.47;1.90;;;4.60;99.90;;;;;;5065929;28;38907;-75
2023/11/29 10:01:24;;;;;;;4.43;1.40;;;4.60;99.90;;;;;;5063111;28;38005;-76
2023/11/29 10:04:04;;;;;;;9.80;2.13;;;4.60;99.90;;;;;;5060498;28;37522;-75
2023/11/29 10:06:30;;;;;;;4.97;1.20;;;4.40;99.90;;;;;;5074413;28;47975;-76
2023/11/29 10:08:58;;;;;;;5.00;0.90;;;4.20;99.90;;;;;;5067530;28;39440;-76
2023/11/29 10:11:25;;;;;;;3.33;1.00;;;4.20;99.90;;;;;;5065319;28;37505;-76
2023/11/29 10:13:52;;;;;;;1.40;0.60;;;4.20;99.90;;;;;;5071223;28;37567;-76
2023/11/29 10:16:22;;;;;;;2.57;0.90;;;4.30;99.90;;;;;;5063244;28;38683;-75
2023/11/29 10:18:48;;;;;;;6.17;0.73;;;4.40;99.90;;;;;;5051584;28;37473;-76
2023/11/29 10:21:14;;;;;;;3.23;1.20;;;4.40;99.90;;;;;;5047035;28;37364;-76
2023/11/29 10:23:44;;;;;;;3.47;1.03;;;4.40;99.90;;;;;;5053887;28;36861;-74
2023/11/29 10:26:11;;;;;;;4.33;1.73;;;4.40;99.90;;;;;;5049217;28;38169;-74
2023/11/29 10:28:37;;;;;;;3.13;1.43;;;4.50;99.90;;;;;;5050739;28;38190;-75
2023/11/29 10:31:05;;;;;;;2.03;1.30;;;4.50;99.90;;;;;;5061966;28;38419;-76
2023/11/29 10:33:32;;;;;;;3.13;1.60;;;4.60;99.90;;;;;;5042783;28;37716;-76
2023/11/29 10:36:02;;;;;;;4.07;1.30;;;4.70;99.90;;;;;;5050978;28;39013;-75
2023/11/29 10:38:39;;;;;;;2.50;1.10;;;4.80;99.90;;;;;;5049024;28;47446;-76
2023/11/29 10:41:06;;;;;;;3.20;1.20;;;4.90;99.90;;;;;;5046129;28;37993;-75
2023/11/29 10:43:37;;;;;;;5.53;1.00;;;4.90;99.90;;;;;;5039899;28;36166;-76
2023/11/29 10:46:24;;;;;;;1.50;0.90;;;4.80;99.90;;;;;;5063439;28;39073;-76
2023/11/29 10:48:57;;;;;;;1.90;1.00;;;4.80;99.90;;;;;;5050414;28;37280;-76
2023/11/29 10:51:24;;;;;;;4.27;1.10;;;4.80;99.90;;;;;;5053368;28;38688;-75
2023/11/29 10:53:51;;;;;;;5.80;1.00;;;4.80;99.90;;;;;;5066980;28;36779;-75
2023/11/29 10:56:19;;;;;;;4.37;1.57;;;4.80;99.90;;;;;;5047009;28;36993;-76
2023/11/29 10:59:22;;;;;;;6.10;1.30;;;4.90;99.90;;;;;;5052279;28;39976;-75
2023/11/29 11:01:53;;;;;;;8.60;1.47;;;4.80;99.90;;;;;;5042758;28;48662;-76
2023/11/29 11:04:19;;;;;;;3.63;2.27;;;4.80;99.90;;;;;;5052155;28;36657;-75
2023/11/29 11:06:45;;;;;;;6.37;1.23;;;4.80;99.90;;;;;;5064379;28;39250;-76
2023/11/29 11:09:31;;;;;;;3.20;1.60;;;4.90;99.90;;;;;;5068153;28;38186;-75
2023/11/29 11:11:58;;;;;;;6.30;1.70;;;4.90;99.90;;;;;;5066751;28;38136;-75
2023/11/29 11:14:27;;;;;;;6.73;1.50;;;5.00;99.90;;;;;;5054546;28;36454;-75
2023/11/29 11:17:00;;;;;;;6.77;1.47;;;5.00;99.90;;;;;;5044785;28;38360;-76
2023/11/29 11:19:33;;;;;;;4.18;1.35;;;5.20;99.90;;;;;;5067815;28;39992;-75
2023/11/29 11:22:00;;;;;;;;;;;5.30;99.90;;;;;;5064346;28;38501;-75
2023/11/29 11:25:13;;;;;;;4.57;1.97;;;5.40;99.90;;;;;;5066763;28;36883;-75
2023/11/29 11:27:45;;;;;;;4.40;1.57;;;5.40;99.90;;;;;;5058407;28;50172;-75
2023/11/29 11:30:17;;;;;;;10.33;1.87;;;5.50;99.90;;;;;;5060262;28;37778;-74
2023/11/29 11:32:49;;;;;;;5.07;1.60;;;5.70;99.90;;;;;;5050531;28;36629;-76
2023/11/29 11:37:46;;;;;;;4.17;1.20;;;5.90;99.90;;;;;;5062305;28;39866;-75
2023/11/29 11:40:13;;;;;;;6.10;1.20;;;5.80;99.90;;;;;;5041111;28;40180;-75
2023/11/29 11:42:40;;;;;;;3.37;0.80;;;5.90;99.90;;;;;;5037486;28;39024;-74
2023/11/29 11:45:10;;;;;;;3.50;0.90;;;6.00;99.90;;;;;;5061221;28;36671;-75
2023/11/29 11:47:37;;;;;;;5.90;1.67;;;6.00;99.90;;;;;;5059297;28;39758;-75
2023/11/29 11:50:04;;;;;;;1.93;0.63;;;5.90;99.90;;;;;;5065065;28;39397;-77
2023/11/29 11:52:31;;;;;;;5.13;0.80;;;5.70;99.90;;;;;;5051139;28;46989;-75
2023/11/29 11:55:02;;;;;;;2.40;0.93;;;5.80;99.90;;;;;;5050351;28;36269;-75
2023/11/29 11:57:30;;;;;;;4.50;1.13;;;5.70;99.90;;;;;;5062762;28;37924;-75
2023/11/29 11:59:57;;;;;;;1.00;0.70;;;5.70;99.90;;;;;;5050744;28;37510;-75
2023/11/29 12:02:23;;;;;;;1.97;0.60;;;5.70;99.90;;;;;;5048751;28;37215;-75
2023/11/29 12:04:56;;;;;;;5.73;0.60;;;5.60;99.90;;;;;;5061460;28;36070;-76
2023/11/29 12:07:22;;;;;;;2.70;0.83;;;5.50;99.90;;;;;;5051616;28;38991;-75
2023/11/29 12:09:53;;;;;;;2.50;0.90;;;5.50;99.90;;;;;;5060865;28;40418;-76
2023/11/29 12:12:22;;;;;;;2.40;0.60;;;5.40;99.90;;;;;;5079482;27;37240;-75
2023/11/29 12:14:50;;;;;;;1.90;0.97;;;5.50;99.90;;;;;;5049954;28;35868;-76
2023/11/29 12:17:26;;;;;;;3.37;0.63;;;5.40;99.90;;;;;;5062355;28;39474;-75
2023/11/29 12:19:57;;;;;;;3.13;0.90;;;5.40;99.90;;;;;;5066896;28;38132;-74
2023/11/29 12:22:25;;;;;;;4.13;1.23;;;5.30;99.90;;;;;;5070916;28;36496;-75
2023/11/29 12:24:51;;;;;;;2.17;1.00;;;5.30;99.90;;;;;;5064231;28;36757;-76
2023/11/29 12:27:18;;;;;;;2.53;0.73;;;5.30;99.90;;;;;;5056701;28;38012;-75
2023/11/29 12:29:49;;;;;;;2.03;0.90;;;5.30;99.90;;;;;;5051071;28;37082;-74
2023/11/29 12:32:17;;;;;;;3.03;1.00;;;5.30;99.90;;;;;;5051751;28;38452;-74
2023/11/29 12:34:44;;;;;;;3.70;1.00;;;5.20;99.90;;;;;;5065185;28;37314;-74
2023/11/29 12:37:17;;;;;;;6.27;1.00;;;5.20;99.90;;;;;;5047081;28;39400;-75
2023/11/29 12:39:44;;;;;;;;;;;5.20;99.90;;;;;;5055959;28;39052;-76
2023/11/29 12:42:10;;;;;;;4.27;1.53;;;5.20;99.90;;;;;;5044567;28;38195;-75
2023/11/29 12:44:38;;;;;;;3.27;1.63;;;5.30;99.90;;;;;;5055241;28;35313;-76
2023/11/29 12:47:08;;;;;;;3.00;1.83;;;5.30;99.90;;;;;;5063648;28;38361;-75
2023/11/29 12:49:34;;;;;;;2.87;1.10;;;5.40;99.90;;;;;;5067624;28;38488;-77
2023/11/29 12:52:00;;;;;;;3.60;1.27;;;5.40;99.90;;;;;;5055777;28;37742;-75
2023/11/29 12:54:27;;;;;;;2.00;1.20;;;5.40;99.90;;;;;;5051483;28;46918;-76
2023/11/29 12:56:58;;;;;;;2.67;1.20;;;5.50;99.90;;;;;;5070178;28;38657;-75
2023/11/29 12:59:25;;;;;;;2.53;0.93;;;5.50;99.90;;;;;;5069595;28;38413;-76
2023/11/29 13:01:52;;;;;;;2.73;1.33;;;5.60;99.90;;;;;;5065040;28;39604;-75
2023/11/29 13:04:18;;;;;;;6.63;1.70;;;5.50;99.90;;;;;;5053412;28;36202;-75